createdAt,value
2022-11-23T00:01:37.465Z,4.89
2022-11-23T00:04:06.838Z,4.86
2022-11-23T00:06:34.338Z,4.98
2022-11-23T00:09:00.867Z,5.09
2022-11-23T00:11:30.349Z,5.00
2022-11-23T00:13:57.214Z,5.05
2022-11-23T00:16:29.593Z,4.97
2022-11-23T00:18:57.845Z,4.93
2022-11-23T00:21:26.152Z,4.92
2022-11-23T00:23:52.979Z,4.93
2022-11-23T00:26:21.493Z,4.93
2022-11-23T00:28:50.520Z,5.04
2022-11-23T00:31:19.878Z,4.98
2022-11-23T00:33:53.942Z,4.85
2022-11-23T00:36:21.645Z,4.86
2022-11-23T00:38:49.199Z,4.79
2022-11-23T00:41:18.434Z,4.76
2022-11-23T00:43:45.651Z,4.82
2022-11-23T00:46:18.154Z,4.82
2022-11-23T00:48:46.936Z,4.79
2022-11-23T00:51:16.427Z,4.85
2022-11-23T00:53:43.103Z,4.84
2022-11-23T00:56:10.322Z,4.79
2022-11-23T00:58:39.734Z,4.86
2022-11-23T01:01:13.414Z,4.67
2022-11-23T01:03:42.967Z,4.79
2022-11-23T01:06:12.053Z,4.73
2022-11-23T01:08:39.336Z,4.83
2022-11-23T01:11:08.825Z,4.74
2022-11-23T01:13:36.817Z,4.76
2022-11-23T01:16:03.421Z,4.79
2022-11-23T01:18:29.870Z,4.70
2022-11-23T01:20:56.408Z,4.68
2022-11-23T01:23:22.977Z,4.85
2022-11-23T01:25:54.302Z,4.86
2022-11-23T01:28:23.288Z,4.68
2022-11-23T01:30:49.820Z,4.70
2022-11-23T01:33:16.237Z,4.58
2022-11-23T01:35:42.669Z,4.64
2022-11-23T01:38:11.522Z,4.66
2022-11-23T01:40:43.131Z,4.63
2022-11-23T01:43:19.187Z,4.68
2022-11-23T01:45:59.376Z,4.50
2022-11-23T01:48:34.986Z,4.60
2022-11-23T01:51:06.970Z,4.69
2022-11-23T01:53:37.234Z,4.53
2022-11-23T01:56:07.181Z,4.63
2022-11-23T01:58:38.726Z,4.59
2022-11-23T02:01:06.566Z,4.69
2022-11-23T02:03:35.092Z,4.62
2022-11-23T02:06:05.464Z,4.67
2022-11-23T02:08:35.000Z,4.59
2022-11-23T02:11:03.220Z,4.54
2022-11-23T02:13:32.517Z,4.63
2022-11-23T02:15:59.547Z,4.60
2022-11-23T02:18:29.415Z,4.60
2022-11-23T02:20:58.094Z,4.60
2022-11-23T02:23:36.410Z,4.51
2022-11-23T02:26:05.376Z,4.46
2022-11-23T02:28:41.965Z,4.45
2022-11-23T02:31:08.610Z,4.45
2022-11-23T02:33:38.729Z,4.41
2022-11-23T02:36:30.061Z,4.45
2022-11-23T02:38:59.648Z,4.50
2022-11-23T02:41:26.134Z,4.59
2022-11-23T02:43:56.239Z,4.58
2022-11-23T02:46:22.669Z,4.53
2022-11-23T02:48:49.131Z,4.43
2022-11-23T02:51:15.549Z,4.47
2022-11-23T02:53:41.947Z,4.50
2022-11-23T02:56:08.611Z,4.39
2022-11-23T02:58:35.015Z,4.42
2022-11-23T03:01:01.568Z,4.36
2022-11-23T03:03:28.058Z,4.37
2022-11-23T03:05:54.587Z,4.38
2022-11-23T03:08:21.049Z,4.27
2022-11-23T03:10:47.485Z,4.40
2022-11-23T03:13:13.998Z,4.42
2022-11-23T03:15:40.501Z,4.38
2022-11-23T03:18:07.037Z,4.58
2022-11-23T03:20:33.457Z,4.52
2022-11-23T03:23:02.298Z,4.56
2022-11-23T03:25:28.828Z,4.39
2022-11-23T03:27:55.288Z,4.40
2022-11-23T03:30:21.806Z,4.39
2022-11-23T03:32:48.229Z,4.37
2022-11-23T03:35:14.821Z,4.39
2022-11-23T03:37:41.461Z,4.42
2022-11-23T03:40:08.756Z,4.46
2022-11-23T03:42:35.208Z,4.47
2022-11-23T03:45:01.619Z,4.45
2022-11-23T03:47:30.706Z,4.48
2022-11-23T03:49:57.220Z,4.50
2022-11-23T03:52:23.656Z,4.40
2022-11-23T03:54:50.114Z,4.46
2022-11-23T03:57:16.565Z,4.45
2022-11-23T03:59:43.100Z,4.38
2022-11-23T04:02:09.581Z,4.45
2022-11-23T04:04:36.218Z,4.37
2022-11-23T04:07:03.132Z,4.53
2022-11-23T04:09:29.756Z,4.51
2022-11-23T04:11:56.534Z,4.42
2022-11-23T04:14:22.999Z,4.44
2022-11-23T04:16:49.496Z,4.42
2022-11-23T04:19:18.280Z,4.39
2022-11-23T04:21:44.746Z,4.29
2022-11-23T04:24:13.295Z,4.33
2022-11-23T04:26:40.699Z,4.39
2022-11-23T04:29:07.186Z,4.48
2022-11-23T04:31:33.722Z,4.40
2022-11-23T04:34:00.270Z,4.44
2022-11-23T04:36:27.621Z,4.51
2022-11-23T04:38:54.024Z,4.38
2022-11-23T04:41:20.543Z,4.43
2022-11-23T04:43:50.367Z,4.32
2022-11-23T04:46:19.242Z,4.32
2022-11-23T04:48:45.952Z,4.30
2022-11-23T04:51:12.479Z,4.38
2022-11-23T04:53:38.950Z,4.38
2022-11-23T04:56:05.848Z,4.41
2022-11-23T04:58:36.399Z,4.49
2022-11-23T05:01:04.467Z,4.50
2022-11-23T05:03:31.372Z,4.45
2022-11-23T05:05:59.196Z,4.43
2022-11-23T05:08:25.626Z,4.56
2022-11-23T05:10:52.063Z,4.57
2022-11-23T05:13:18.505Z,4.53
2022-11-23T05:15:44.972Z,4.55
2022-11-23T05:18:11.878Z,4.50
2022-11-23T05:20:38.551Z,4.49
2022-11-23T05:23:05.252Z,4.53
2022-11-23T05:25:31.803Z,4.56
2022-11-23T05:28:03.629Z,4.55
2022-11-23T05:30:33.842Z,4.48
2022-11-23T05:33:01.923Z,4.50
2022-11-23T05:35:30.898Z,4.49
2022-11-23T05:37:57.458Z,4.50
2022-11-23T05:40:26.136Z,4.48
2022-11-23T05:42:58.701Z,4.51
2022-11-23T05:45:26.066Z,4.46
2022-11-23T05:47:57.081Z,4.58
2022-11-23T05:50:26.008Z,4.55
2022-11-23T05:52:52.495Z,4.57
2022-11-23T05:55:18.930Z,4.49
2022-11-23T05:57:45.368Z,4.43
2022-11-23T06:00:12.446Z,4.44
2022-11-23T06:02:41.229Z,4.42
2022-11-23T06:05:09.056Z,4.55
2022-11-23T06:07:36.228Z,4.53
2022-11-23T06:10:04.574Z,4.56
2022-11-23T06:12:31.433Z,4.54
2022-11-23T06:14:57.907Z,4.56
2022-11-23T06:17:26.842Z,4.57
2022-11-23T06:19:53.313Z,4.59
2022-11-23T06:22:19.920Z,4.62
2022-11-23T06:24:46.441Z,4.63
2022-11-23T06:27:18.259Z,4.63
2022-11-23T06:29:46.873Z,4.67
2022-11-23T06:32:13.711Z,4.63
2022-11-23T06:34:40.217Z,4.63
2022-11-23T06:37:06.800Z,4.55
2022-11-23T06:39:33.650Z,4.55
2022-11-23T06:42:30.998Z,4.60
2022-11-23T06:44:49.887Z,4.73
2022-11-23T06:47:18.343Z,4.66
2022-11-23T06:49:46.436Z,4.66
2022-11-23T06:52:13.879Z,4.57
2022-11-23T06:54:40.388Z,4.64
2022-11-23T06:57:10.333Z,4.70
2022-11-23T06:59:39.512Z,4.68
2022-11-23T07:02:10.114Z,4.58
2022-11-23T07:04:36.684Z,4.61
2022-11-23T07:07:03.253Z,4.69
2022-11-23T07:09:32.359Z,4.76
2022-11-23T07:11:59.179Z,4.70
2022-11-23T07:14:25.692Z,4.73
2022-11-23T07:16:52.204Z,4.71
2022-11-23T07:19:18.746Z,4.71
2022-11-23T07:21:45.727Z,4.85
2022-11-23T07:24:12.413Z,4.85
2022-11-23T07:26:38.909Z,4.97
2022-11-23T07:29:05.423Z,4.97
2022-11-23T07:31:32.169Z,5.06
2022-11-23T07:34:01.024Z,5.00
2022-11-23T07:36:27.624Z,5.01
2022-11-23T07:38:56.248Z,5.20
2022-11-23T07:41:22.782Z,5.11
2022-11-23T07:43:51.901Z,5.09
2022-11-23T07:46:18.631Z,5.29
2022-11-23T07:48:45.162Z,5.27
2022-11-23T07:51:11.813Z,5.30
2022-11-23T07:53:38.333Z,5.42
2022-11-23T07:56:05.169Z,5.36
2022-11-23T07:58:33.084Z,5.36
2022-11-23T08:00:59.735Z,5.31
2022-11-23T08:03:28.238Z,5.37
2022-11-23T08:05:58.220Z,5.33
2022-11-23T08:08:24.963Z,5.33
2022-11-23T08:10:53.777Z,5.45
2022-11-23T08:13:21.805Z,5.52
2022-11-23T08:15:53.633Z,5.50
2022-11-23T08:18:21.667Z,5.66
2022-11-23T08:20:48.457Z,5.79
2022-11-23T08:23:15.194Z,5.82
2022-11-23T08:25:42.100Z,5.77
2022-11-23T08:28:11.812Z,5.78
2022-11-23T08:30:38.722Z,5.85
2022-11-23T08:33:07.463Z,5.97
2022-11-23T08:35:35.225Z,6.05
2022-11-23T08:38:03.965Z,6.26
2022-11-23T08:40:31.063Z,6.37
2022-11-23T08:43:01.086Z,6.37
2022-11-23T08:45:27.996Z,6.40
2022-11-23T08:47:55.762Z,6.42
2022-11-23T08:50:22.914Z,6.55
2022-11-23T08:52:55.078Z,6.59
2022-11-23T08:55:21.769Z,6.77
2022-11-23T08:57:48.340Z,7.12
2022-11-23T09:00:15.430Z,7.14
2022-11-23T09:02:41.945Z,7.23
2022-11-23T09:05:09.468Z,7.33
2022-11-23T09:07:36.004Z,7.79
2022-11-23T09:10:02.603Z,7.47
2022-11-23T09:12:29.128Z,7.64
2022-11-23T09:14:55.793Z,7.53
2022-11-23T09:17:22.317Z,7.48
2022-11-23T09:19:50.478Z,7.77
2022-11-23T09:22:17.061Z,7.91
2022-11-23T09:24:43.667Z,7.85
2022-11-23T09:27:10.227Z,7.79
2022-11-23T09:29:36.724Z,8.09
2022-11-23T09:32:03.513Z,7.86
2022-11-23T09:34:30.219Z,7.88
2022-11-23T09:36:58.090Z,8.01
2022-11-23T09:39:24.687Z,8.19
2022-11-23T09:41:56.995Z,8.14
2022-11-23T09:44:57.407Z,8.10
2022-11-23T09:47:26.165Z,8.07
2022-11-23T09:50:08.004Z,8.35
2022-11-23T09:52:40.586Z,8.13
2022-11-23T09:55:24.875Z,8.20
2022-11-23T09:57:57.511Z,8.39
2022-11-23T10:00:24.253Z,8.65
2022-11-23T10:02:50.935Z,8.94
2022-11-23T10:05:21.123Z,8.91
2022-11-23T10:07:50.365Z,9.17
2022-11-23T10:10:26.526Z,8.99
2022-11-23T10:13:17.521Z,8.79
2022-11-23T10:16:00.883Z,8.74
2022-11-23T10:18:42.627Z,8.94
2022-11-23T10:21:41.580Z,9.42
2022-11-23T10:24:08.035Z,9.26
2022-11-23T10:26:40.384Z,9.45
2022-11-23T10:29:16.740Z,9.32
2022-11-23T10:31:52.745Z,9.04
2022-11-23T10:34:35.537Z,9.10
2022-11-23T10:37:02.141Z,9.46
2022-11-23T10:39:28.700Z,9.27
2022-11-23T10:42:02.066Z,9.28
2022-11-23T10:44:36.304Z,9.37
2022-11-23T10:47:02.953Z,9.23
2022-11-23T10:49:33.023Z,9.44
2022-11-23T10:52:05.171Z,9.30
2022-11-23T10:54:52.936Z,9.28
2022-11-23T10:57:44.441Z,9.10
2022-11-23T11:00:15.880Z,9.20
2022-11-23T11:02:45.331Z,9.12
2022-11-23T11:05:46.312Z,9.32
2022-11-23T11:08:20.405Z,9.22
2022-11-23T11:11:07.568Z,9.44
2022-11-23T11:13:46.137Z,9.32
2022-11-23T11:16:18.844Z,9.04
2022-11-23T11:18:48.548Z,9.06
2022-11-23T11:21:22.668Z,8.88
2022-11-23T11:23:56.068Z,9.09
2022-11-23T11:26:27.300Z,9.23
2022-11-23T11:28:56.499Z,9.31
2022-11-23T11:31:25.797Z,9.02
2022-11-23T11:34:00.452Z,9.15
2022-11-23T11:36:35.373Z,9.13
2022-11-23T11:39:18.410Z,9.40
2022-11-23T11:41:47.373Z,9.69
2022-11-23T11:44:23.765Z,9.78
2022-11-23T11:47:06.338Z,9.63
2022-11-23T11:49:44.400Z,9.61
2022-11-23T11:52:36.816Z,9.28
2022-11-23T11:55:18.878Z,9.33
2022-11-23T11:57:56.638Z,9.54
2022-11-23T12:00:23.503Z,9.56
2022-11-23T12:03:05.337Z,9.73
2022-11-23T12:05:44.009Z,9.65
2022-11-23T12:08:42.631Z,9.70
2022-11-23T12:11:12.522Z,9.51
2022-11-23T12:13:42.989Z,9.51
2022-11-23T12:16:34.145Z,9.42
2022-11-23T12:19:19.446Z,9.54
2022-11-23T12:22:01.358Z,9.49
2022-11-23T12:24:46.314Z,9.32
2022-11-23T12:27:50.398Z,9.45
2022-11-23T12:30:26.892Z,9.40
2022-11-23T12:33:11.882Z,9.57
2022-11-23T12:36:25.923Z,9.54
2022-11-23T12:38:56.529Z,9.46
2022-11-23T12:41:38.363Z,9.58
2022-11-23T12:44:07.812Z,9.54
2022-11-23T12:46:51.076Z,9.25
2022-11-23T12:49:26.802Z,9.33
2022-11-23T12:51:59.404Z,9.29
2022-11-23T12:54:56.315Z,9.15
2022-11-23T12:57:38.541Z,9.18
2022-11-23T13:00:23.909Z,9.24
2022-11-23T13:02:53.410Z,9.07
2022-11-23T13:05:38.197Z,9.33
2022-11-23T13:08:30.377Z,9.30
2022-11-23T13:10:59.872Z,9.34
2022-11-23T13:13:48.874Z,9.46
2022-11-23T13:16:24.815Z,9.28
2022-11-23T13:19:08.086Z,9.39
2022-11-23T13:21:37.655Z,9.35
2022-11-23T13:24:04.470Z,9.41
2022-11-23T13:26:33.895Z,9.38
2022-11-23T13:29:32.317Z,9.48
2022-11-23T13:32:33.865Z,9.49
2022-11-23T13:35:00.478Z,9.30
2022-11-23T13:37:29.166Z,9.46
2022-11-23T13:39:58.706Z,9.43
2022-11-23T13:42:27.135Z,9.34
2022-11-23T13:45:18.660Z,9.31
2022-11-23T13:48:34.433Z,9.24
2022-11-23T13:51:01.546Z,9.11
2022-11-23T13:53:42.612Z,9.09
2022-11-23T13:56:27.248Z,9.01
2022-11-23T13:59:00.007Z,9.27
2022-11-23T14:02:03.053Z,9.34
2022-11-23T14:04:38.655Z,9.25
2022-11-23T14:07:24.678Z,9.30
2022-11-23T14:10:15.410Z,9.35
2022-11-23T14:12:52.082Z,9.21
2022-11-23T14:15:24.105Z,9.22
2022-11-23T14:18:11.950Z,9.14
2022-11-23T14:20:41.408Z,9.09
2022-11-23T14:23:07.860Z,9.16
2022-11-23T14:26:12.166Z,8.97
2022-11-23T14:28:41.533Z,8.91
2022-11-23T14:31:36.921Z,8.73
2022-11-23T14:34:28.410Z,8.71
2022-11-23T14:37:08.705Z,8.61
2022-11-23T14:39:58.658Z,8.51
2022-11-23T14:42:28.454Z,8.45
2022-11-23T14:44:57.872Z,8.28
2022-11-23T14:47:30.694Z,8.25
2022-11-23T14:49:58.026Z,8.01
2022-11-23T14:52:28.326Z,7.93
2022-11-23T14:54:57.366Z,7.92
2022-11-23T14:57:34.465Z,7.79
2022-11-23T15:00:03.873Z,7.72
2022-11-23T15:02:36.687Z,7.63
2022-11-23T15:05:24.717Z,7.55
2022-11-23T15:08:13.290Z,7.55
2022-11-23T15:10:42.404Z,7.37
2022-11-23T15:13:21.738Z,7.11
2022-11-23T15:15:52.230Z,6.95
2022-11-23T15:18:34.559Z,6.97
2022-11-23T15:21:04.367Z,6.75
2022-11-23T15:23:36.706Z,6.79
2022-11-23T15:26:06.583Z,6.75
2022-11-23T15:28:37.097Z,6.64
2022-11-23T15:31:26.842Z,6.44
2022-11-23T15:33:56.818Z,6.30
2022-11-23T15:36:30.223Z,6.36
2022-11-23T15:38:57.951Z,6.26
2022-11-23T15:41:27.357Z,6.10
2022-11-23T15:43:55.692Z,5.93
2022-11-23T15:46:27.653Z,5.83
2022-11-23T15:48:55.421Z,5.85
2022-11-23T15:51:28.480Z,5.78
2022-11-23T15:53:57.950Z,5.88
2022-11-23T15:56:29.561Z,5.61
2022-11-23T15:58:58.584Z,5.75
2022-11-23T16:01:28.112Z,5.63
2022-11-23T16:04:03.854Z,5.42
2022-11-23T16:06:46.954Z,5.45
2022-11-23T16:09:51.623Z,5.39
2022-11-23T16:12:45.685Z,5.24
2022-11-23T16:15:27.445Z,5.27
2022-11-23T16:17:53.984Z,4.98
2022-11-23T16:20:23.922Z,4.71
2022-11-23T16:22:53.643Z,4.99
2022-11-23T16:25:36.070Z,4.92
2022-11-23T16:28:17.683Z,5.02
2022-11-23T16:30:48.486Z,4.97
2022-11-23T16:33:17.618Z,4.99
2022-11-23T16:35:46.982Z,5.02
2022-11-23T16:38:13.579Z,5.10
2022-11-23T16:40:41.913Z,5.13
2022-11-23T16:43:12.662Z,4.84
2022-11-23T16:45:41.008Z,4.54
2022-11-23T16:48:26.036Z,4.32
2022-11-23T16:50:54.780Z,4.55
2022-11-23T16:53:21.512Z,4.46
2022-11-23T16:55:55.714Z,4.25
2022-11-23T16:58:22.710Z,4.20
2022-11-23T17:00:49.943Z,4.23
2022-11-23T17:03:17.858Z,4.31
2022-11-23T17:05:44.768Z,4.41
2022-11-23T17:08:11.497Z,4.24
2022-11-23T17:10:39.113Z,4.22
2022-11-23T17:13:12.384Z,4.03
2022-11-23T17:15:39.938Z,4.14
2022-11-23T17:18:13.398Z,3.94
2022-11-23T17:20:40.474Z,3.87
2022-11-23T17:23:07.559Z,3.56
2022-11-23T17:25:37.834Z,3.39
2022-11-23T17:28:05.919Z,3.44
2022-11-23T17:30:33.219Z,3.50
2022-11-23T17:33:00.500Z,3.48
2022-11-23T17:35:32.700Z,3.33
2022-11-23T17:38:02.794Z,3.36
2022-11-23T17:40:31.523Z,3.43
2022-11-23T17:42:58.254Z,3.42
2022-11-23T17:45:24.761Z,3.41
2022-11-23T17:47:53.585Z,3.44
2022-11-23T17:50:20.305Z,3.39
2022-11-23T17:52:47.698Z,3.46
2022-11-23T17:55:15.069Z,3.44
2022-11-23T17:57:41.639Z,3.50
2022-11-23T18:00:16.820Z,3.39
2022-11-23T18:02:43.405Z,3.56
2022-11-23T18:05:10.383Z,3.42
2022-11-23T18:07:37.314Z,3.16
2022-11-23T18:10:04.672Z,2.94
2022-11-23T18:12:31.118Z,2.84
2022-11-23T18:14:57.620Z,2.82
2022-11-23T18:17:24.124Z,2.84
2022-11-23T18:19:50.772Z,2.73
2022-11-23T18:22:17.294Z,2.82
2022-11-23T18:24:43.737Z,2.74
2022-11-23T18:27:10.417Z,2.91
2022-11-23T18:29:37.903Z,2.92
2022-11-23T18:32:06.602Z,3.00
2022-11-23T18:34:33.161Z,3.11
2022-11-23T18:36:59.704Z,3.27
2022-11-23T18:39:26.197Z,3.26
2022-11-23T18:41:55.474Z,3.20
2022-11-23T18:44:22.054Z,3.00
2022-11-23T18:46:49.348Z,3.11
2022-11-23T18:49:16.012Z,2.99
2022-11-23T18:51:42.506Z,2.97
2022-11-23T18:54:11.282Z,3.05
2022-11-23T18:56:37.761Z,3.12
2022-11-23T18:59:04.241Z,3.32
2022-11-23T19:01:30.815Z,3.31
2022-11-23T19:03:57.441Z,3.05
2022-11-23T19:06:24.195Z,3.19
2022-11-23T19:08:54.480Z,3.03
2022-11-23T19:11:24.273Z,3.01
2022-11-23T19:13:55.810Z,3.00
2022-11-23T19:16:30.414Z,2.91
2022-11-23T19:19:02.395Z,2.94
2022-11-23T19:21:31.543Z,2.95
2022-11-23T19:23:59.540Z,2.96
2022-11-23T19:26:27.585Z,3.12
2022-11-23T19:28:54.931Z,3.06
2022-11-23T19:31:22.924Z,3.02
2022-11-23T19:33:52.441Z,3.13
2022-11-23T19:36:24.226Z,3.11
2022-11-23T19:38:54.575Z,2.96
2022-11-23T19:41:30.197Z,3.01
2022-11-23T19:43:58.387Z,3.03
2022-11-23T19:46:28.998Z,3.16
2022-11-23T19:48:57.324Z,3.03
2022-11-23T19:51:27.137Z,2.98
2022-11-23T19:53:54.692Z,2.97
2022-11-23T19:56:26.244Z,2.78
2022-11-23T19:58:55.182Z,3.00
2022-11-23T20:01:24.015Z,2.84
2022-11-23T20:03:53.452Z,2.88
2022-11-23T20:06:26.405Z,2.70
2022-11-23T20:08:58.026Z,2.67
2022-11-23T20:11:26.251Z,2.65
2022-11-23T20:13:54.221Z,2.78
2022-11-23T20:16:23.558Z,2.81
2022-11-23T20:18:57.187Z,2.73
2022-11-23T20:21:25.929Z,2.70
2022-11-23T20:24:05.077Z,2.81
2022-11-23T20:26:33.094Z,2.52
2022-11-23T20:28:59.548Z,2.38
2022-11-23T20:31:28.360Z,2.41
2022-11-23T20:33:55.931Z,2.26
2022-11-23T20:36:28.774Z,2.30
2022-11-23T20:38:57.986Z,1.98
2022-11-23T20:41:28.433Z,2.07
2022-11-23T20:43:56.082Z,1.97
2022-11-23T20:46:53.723Z,2.05
2022-11-23T20:49:15.243Z,2.33
2022-11-23T20:51:43.947Z,1.96
2022-11-23T20:54:10.443Z,1.95
2022-11-23T20:56:39.175Z,1.83
2022-11-23T20:59:05.648Z,1.98
2022-11-23T21:01:32.671Z,1.88
2022-11-23T21:04:00.110Z,1.68
2022-11-23T21:06:27.984Z,1.69
2022-11-23T21:08:55.160Z,1.67
2022-11-23T21:11:43.563Z,1.79
2022-11-23T21:14:18.126Z,1.83
2022-11-23T21:16:52.903Z,2.01
2022-11-23T21:19:21.881Z,2.21
2022-11-23T21:21:50.707Z,1.91
2022-11-23T21:24:17.677Z,1.99
2022-11-23T21:26:44.325Z,1.86
2022-11-23T21:29:11.426Z,2.10
2022-11-23T21:31:39.466Z,2.08
2022-11-23T21:34:06.423Z,2.09
2022-11-23T21:36:39.609Z,1.99
2022-11-23T21:39:08.648Z,2.18
2022-11-23T21:41:35.863Z,2.04
2022-11-23T21:44:03.141Z,1.97
2022-11-23T21:46:29.630Z,2.15
2022-11-23T21:48:57.554Z,2.17
2022-11-23T21:51:28.412Z,2.23
2022-11-23T21:53:56.284Z,2.35
2022-11-23T21:56:23.636Z,2.29
2022-11-23T21:58:50.430Z,2.46
2022-11-23T22:01:28.904Z,2.40
2022-11-23T22:04:00.219Z,2.45
2022-11-23T22:06:29.607Z,2.47
2022-11-23T22:09:00.314Z,2.52
2022-11-23T22:11:32.109Z,2.56
2022-11-23T22:14:07.308Z,2.66
2022-11-23T22:16:36.461Z,2.66
2022-11-23T22:19:03.875Z,2.70
2022-11-23T22:21:38.484Z,2.70
2022-11-23T22:24:06.094Z,2.82
2022-11-23T22:26:33.046Z,2.83
2022-11-23T22:29:02.490Z,2.87
2022-11-23T22:31:33.770Z,3.00
2022-11-23T22:34:01.996Z,3.01
2022-11-23T22:36:31.240Z,3.18
2022-11-23T22:39:02.676Z,3.29
2022-11-23T22:41:30.911Z,3.44
2022-11-23T22:43:57.582Z,3.52
2022-11-23T22:46:25.501Z,3.61
2022-11-23T22:48:52.825Z,3.80
2022-11-23T22:51:23.138Z,3.89
2022-11-23T22:53:57.883Z,4.14
2022-11-23T22:56:25.600Z,4.27
2022-11-23T22:58:54.366Z,4.18
2022-11-23T23:01:23.211Z,4.18
2022-11-23T23:03:53.364Z,4.02
2022-11-23T23:06:23.068Z,4.07
2022-11-23T23:08:57.044Z,4.04
2022-11-23T23:11:25.239Z,4.20
2022-11-23T23:13:51.827Z,4.18
2022-11-23T23:16:18.638Z,4.25
2022-11-23T23:18:47.380Z,4.09
2022-11-23T23:21:19.309Z,4.29
2022-11-23T23:23:50.425Z,4.22
2022-11-23T23:26:23.195Z,4.31
2022-11-23T23:28:54.375Z,4.30
2022-11-23T23:31:23.529Z,4.26
2022-11-23T23:33:50.143Z,4.19
2022-11-23T23:36:21.523Z,4.20
2022-11-23T23:38:48.686Z,4.25
2022-11-23T23:41:15.655Z,4.29
2022-11-23T23:43:42.853Z,4.28
2022-11-23T23:46:11.812Z,4.27
2022-11-23T23:48:39.958Z,4.29
2022-11-23T23:51:12.814Z,4.35
2022-11-23T23:53:42.510Z,4.46
2022-11-23T23:56:22.392Z,4.33
2022-11-23T23:58:49.236Z,4.35
